createdAt,value
2022-10-08T00:01:32.552Z,11.10
2022-10-08T00:04:01.071Z,11.10
2022-10-08T00:06:31.614Z,11.00
2022-10-08T00:09:02.873Z,11.10
2022-10-08T00:11:34.542Z,11.10
2022-10-08T00:14:04.032Z,11.10
2022-10-08T00:16:35.745Z,11.10
2022-10-08T00:19:07.770Z,11.10
2022-10-08T00:21:38.686Z,11.20
2022-10-08T00:24:09.221Z,11.20
2022-10-08T00:26:42.779Z,11.10
2022-10-08T00:29:09.587Z,11.10
2022-10-08T00:31:40.683Z,11.00
2022-10-08T00:34:14.892Z,11.00
2022-10-08T00:36:43.787Z,10.90
2022-10-08T00:39:17.825Z,11.00
2022-10-08T00:41:49.051Z,10.90
2022-10-08T00:44:45.852Z,10.80
2022-10-08T00:47:26.203Z,10.80
2022-10-08T00:49:57.604Z,10.80
2022-10-08T00:52:28.897Z,10.70
2022-10-08T00:54:58.776Z,10.70
2022-10-08T00:57:27.977Z,10.60
2022-10-08T00:59:56.961Z,10.60
2022-10-08T01:02:25.496Z,10.60
2022-10-08T01:04:53.967Z,10.50
2022-10-08T01:07:25.537Z,10.50
2022-10-08T01:10:13.533Z,10.60
2022-10-08T01:12:45.714Z,10.50
2022-10-08T01:15:23.309Z,10.50
2022-10-08T01:18:00.514Z,10.50
2022-10-08T01:20:46.901Z,10.70
2022-10-08T01:23:41.700Z,10.70
2022-10-08T01:26:29.730Z,10.80
2022-10-08T01:29:09.900Z,10.80
2022-10-08T01:31:47.323Z,10.80
2022-10-08T01:34:30.640Z,11.00
2022-10-08T01:37:01.808Z,11.00
2022-10-08T01:39:33.608Z,11.00
2022-10-08T01:42:04.712Z,11.10
2022-10-08T01:44:36.805Z,11.10
2022-10-08T01:47:08.314Z,11.10
2022-10-08T01:49:43.743Z,11.00
2022-10-08T01:52:15.249Z,11.00
2022-10-08T01:54:45.727Z,10.90
2022-10-08T01:57:14.720Z,10.90
2022-10-08T01:59:46.333Z,10.90
2022-10-08T02:02:25.862Z,10.80
2022-10-08T02:04:56.783Z,10.80
2022-10-08T02:07:31.057Z,10.80
2022-10-08T02:10:08.430Z,10.90
2022-10-08T02:12:38.596Z,10.90
2022-10-08T02:15:10.338Z,10.90
2022-10-08T02:18:07.340Z,10.90
2022-10-08T02:20:44.567Z,10.80
2022-10-08T02:23:29.020Z,10.80
2022-10-08T02:26:13.370Z,10.80
2022-10-08T02:29:00.102Z,10.90
2022-10-08T02:31:57.726Z,10.80
2022-10-08T02:34:48.530Z,10.80
2022-10-08T02:37:22.952Z,10.90
2022-10-08T02:40:03.206Z,10.80
2022-10-08T02:42:33.588Z,10.80
2022-10-08T02:45:14.057Z,10.80
2022-10-08T02:47:45.362Z,10.80
2022-10-08T02:50:16.330Z,10.90
2022-10-08T02:52:46.954Z,11.00
2022-10-08T02:55:30.169Z,10.90
2022-10-08T02:58:01.803Z,10.90
2022-10-08T03:00:35.159Z,10.90
2022-10-08T03:03:09.458Z,11.00
2022-10-08T03:05:39.689Z,11.00
2022-10-08T03:08:11.253Z,11.00
2022-10-08T03:10:41.630Z,11.10
2022-10-08T03:13:11.421Z,11.10
2022-10-08T03:15:42.227Z,11.20
2022-10-08T03:18:12.919Z,11.20
2022-10-08T03:20:47.346Z,11.30
2022-10-08T03:23:18.427Z,11.40
2022-10-08T03:25:46.891Z,11.50
2022-10-08T03:28:15.415Z,11.60
2022-10-08T03:30:43.921Z,11.60
2022-10-08T03:33:12.410Z,11.70
2022-10-08T03:35:48.553Z,11.70
2022-10-08T03:38:17.552Z,11.80
2022-10-08T03:40:49.182Z,11.90
2022-10-08T03:43:18.127Z,11.90
2022-10-08T03:45:53.906Z,12.00
2022-10-08T03:48:23.785Z,11.70
2022-10-08T03:50:57.875Z,11.20
2022-10-08T03:53:27.869Z,11.00
2022-10-08T03:55:56.355Z,10.90
2022-10-08T03:58:24.897Z,10.90
2022-10-08T04:01:00.825Z,10.80
2022-10-08T04:03:31.066Z,10.80
2022-10-08T04:06:00.410Z,10.80
2022-10-08T04:08:29.251Z,10.80
2022-10-08T04:10:57.842Z,10.80
2022-10-08T04:13:26.395Z,10.70
2022-10-08T04:15:56.587Z,10.70
2022-10-08T04:18:25.116Z,10.70
2022-10-08T04:20:58.973Z,10.70
2022-10-08T04:23:28.476Z,10.80
2022-10-08T04:25:59.881Z,10.80
2022-10-08T04:28:29.477Z,10.80
2022-10-08T04:31:03.104Z,10.80
2022-10-08T04:33:33.854Z,10.90
2022-10-08T04:36:02.659Z,10.90
2022-10-08T04:38:31.123Z,10.80
2022-10-08T04:41:04.885Z,10.80
2022-10-08T04:43:34.302Z,10.80
2022-10-08T04:46:02.983Z,10.80
2022-10-08T04:48:31.528Z,10.80
2022-10-08T04:51:04.083Z,10.80
2022-10-08T04:53:32.697Z,10.80
2022-10-08T04:56:09.612Z,10.80
2022-10-08T04:58:38.076Z,10.80
2022-10-08T05:01:08.493Z,10.80
2022-10-08T05:03:38.802Z,10.80
2022-10-08T05:06:08.525Z,10.80
2022-10-08T05:08:37.142Z,10.80
2022-10-08T05:11:05.858Z,10.80
2022-10-08T05:13:34.656Z,10.80
2022-10-08T05:16:12.344Z,10.80
2022-10-08T05:18:42.250Z,10.80
2022-10-08T05:21:13.634Z,10.80
2022-10-08T05:23:45.466Z,10.80
2022-10-08T05:26:35.925Z,10.80
2022-10-08T05:28:55.963Z,10.80
2022-10-08T05:31:26.260Z,10.80
2022-10-08T05:33:55.095Z,10.80
2022-10-08T05:36:29.153Z,10.80
2022-10-08T05:38:59.616Z,10.80
2022-10-08T05:41:30.048Z,10.80
2022-10-08T05:44:01.296Z,10.70
2022-10-08T05:46:31.134Z,10.80
2022-10-08T05:49:02.183Z,10.80
2022-10-08T05:51:31.347Z,10.80
2022-10-08T05:54:00.832Z,10.80
2022-10-08T05:56:31.575Z,10.80
2022-10-08T05:59:00.391Z,10.70
2022-10-08T06:01:31.481Z,10.70
2022-10-08T06:04:08.036Z,10.80
2022-10-08T06:06:33.096Z,10.70
2022-10-08T06:09:02.480Z,10.70
2022-10-08T06:11:33.193Z,10.80
2022-10-08T06:14:02.718Z,10.80
2022-10-08T06:16:32.047Z,10.80
2022-10-08T06:19:02.083Z,10.80
2022-10-08T06:21:31.255Z,10.70
2022-10-08T06:24:02.386Z,10.80
2022-10-08T06:26:36.001Z,10.80
2022-10-08T06:29:05.961Z,10.80
2022-10-08T06:31:36.038Z,10.80
2022-10-08T06:34:05.452Z,10.90
2022-10-08T06:36:36.601Z,10.90
2022-10-08T06:39:08.404Z,10.90
2022-10-08T06:41:37.135Z,10.90
2022-10-08T06:44:08.097Z,11.00
2022-10-08T06:46:36.867Z,10.90
2022-10-08T06:49:08.533Z,10.90
2022-10-08T06:51:37.101Z,11.00
2022-10-08T06:54:08.214Z,10.90
2022-10-08T06:56:37.824Z,11.00
2022-10-08T06:59:07.496Z,10.90
2022-10-08T07:01:36.428Z,10.90
2022-10-08T07:04:06.669Z,10.90
2022-10-08T07:06:35.646Z,10.90
2022-10-08T07:09:06.992Z,11.00
2022-10-08T07:11:35.784Z,11.10
2022-10-08T07:14:04.308Z,11.10
2022-10-08T07:16:32.906Z,11.30
2022-10-08T07:19:02.134Z,11.30
2022-10-08T07:21:31.420Z,11.40
2022-10-08T07:24:01.688Z,11.20
2022-10-08T07:26:33.114Z,11.30
2022-10-08T07:29:04.258Z,11.30
2022-10-08T07:31:36.231Z,11.20
2022-10-08T07:34:10.756Z,11.30
2022-10-08T07:36:40.302Z,11.30
2022-10-08T07:39:11.365Z,11.40
2022-10-08T07:41:39.887Z,11.40
2022-10-08T07:44:08.680Z,11.60
2022-10-08T07:46:39.765Z,11.60
2022-10-08T07:49:08.315Z,11.60
2022-10-08T07:51:36.923Z,11.80
2022-10-08T07:54:08.606Z,11.90
2022-10-08T07:56:37.667Z,12.10
2022-10-08T07:59:06.818Z,12.20
2022-10-08T08:01:35.413Z,12.20
2022-10-08T08:04:06.494Z,12.20
2022-10-08T08:06:41.034Z,12.20
2022-10-08T08:09:11.018Z,12.20
2022-10-08T08:11:40.201Z,12.30
2022-10-08T08:14:08.726Z,12.30
2022-10-08T08:16:37.328Z,12.40
2022-10-08T08:19:05.964Z,12.50
2022-10-08T08:21:37.154Z,12.70
2022-10-08T08:24:08.408Z,12.70
2022-10-08T08:26:38.797Z,12.60
2022-10-08T08:29:10.959Z,12.60
2022-10-08T08:31:43.343Z,12.60
2022-10-08T08:34:15.153Z,12.40
2022-10-08T08:36:46.146Z,12.50
2022-10-08T08:39:19.900Z,12.40
2022-10-08T08:41:57.084Z,12.50
2022-10-08T08:44:37.200Z,12.80
2022-10-08T08:47:17.893Z,13.50
2022-10-08T08:50:04.374Z,13.40
2022-10-08T08:52:35.958Z,14.30
2022-10-08T08:55:07.465Z,14.80
2022-10-08T08:57:39.056Z,15.80
2022-10-08T09:00:16.813Z,16.30
2022-10-08T09:03:00.346Z,16.50
2022-10-08T09:05:32.489Z,15.60
2022-10-08T09:08:05.742Z,15.20
2022-10-08T09:10:40.225Z,15.60
2022-10-08T09:13:21.048Z,14.20
2022-10-08T09:15:49.513Z,12.70
2022-10-08T09:18:18.390Z,12.50
2022-10-08T09:20:47.112Z,12.10
2022-10-08T09:23:18.921Z,12.00
2022-10-08T09:26:05.260Z,12.40
2022-10-08T09:28:54.680Z,12.50
2022-10-08T09:31:32.378Z,12.30
2022-10-08T09:34:06.658Z,12.30
2022-10-08T09:36:41.163Z,12.80
2022-10-08T09:39:24.448Z,13.80
2022-10-08T09:42:10.912Z,14.40
2022-10-08T09:44:55.457Z,14.80
2022-10-08T09:47:26.694Z,14.00
2022-10-08T09:50:07.356Z,14.40
2022-10-08T09:52:37.067Z,15.30
2022-10-08T09:55:23.773Z,15.40
2022-10-08T09:57:55.345Z,15.30
2022-10-08T10:00:29.773Z,15.40
2022-10-08T10:03:00.707Z,17.00
2022-10-08T10:05:32.041Z,16.10
2022-10-08T10:08:00.888Z,16.70
2022-10-08T10:10:41.183Z,15.50
2022-10-08T10:13:15.504Z,14.50
2022-10-08T10:16:07.871Z,13.60
2022-10-08T10:18:51.492Z,13.80
2022-10-08T10:21:23.033Z,14.20
2022-10-08T10:24:06.207Z,16.20
2022-10-08T10:26:37.840Z,17.20
2022-10-08T10:29:09.466Z,18.90
2022-10-08T10:31:59.960Z,17.90
2022-10-08T10:34:34.820Z,16.10
2022-10-08T10:37:18.457Z,14.80
2022-10-08T10:39:57.541Z,15.40
2022-10-08T10:42:29.102Z,18.10
2022-10-08T10:45:04.237Z,20.40
2022-10-08T10:47:33.909Z,21.50
2022-10-08T10:50:03.563Z,20.60
2022-10-08T10:52:35.152Z,20.70
2022-10-08T10:55:25.952Z,22.50
2022-10-08T10:58:10.682Z,22.60
2022-10-08T11:01:01.831Z,19.00
2022-10-08T11:03:49.799Z,22.30
2022-10-08T11:06:38.271Z,24.50
2022-10-08T11:09:33.025Z,25.90
2022-10-08T11:12:07.593Z,21.80
2022-10-08T11:14:47.874Z,22.00
2022-10-08T11:17:36.202Z,23.20
2022-10-08T11:20:27.250Z,22.20
2022-10-08T11:22:58.867Z,21.10
2022-10-08T11:26:15.358Z,21.20
2022-10-08T11:28:45.792Z,19.50
2022-10-08T11:31:26.267Z,18.10
2022-10-08T11:33:56.975Z,17.50
2022-10-08T11:36:37.589Z,17.30
2022-10-08T11:39:09.189Z,19.00
2022-10-08T11:41:40.732Z,18.20
2022-10-08T11:44:11.678Z,17.00
2022-10-08T11:46:40.200Z,18.30
2022-10-08T11:49:14.466Z,16.40
2022-10-08T11:51:44.611Z,16.20
2022-10-08T11:54:38.467Z,18.80
2022-10-08T11:57:35.131Z,21.20
2022-10-08T12:00:07.968Z,21.30
2022-10-08T12:02:39.681Z,23.10
2022-10-08T12:05:25.549Z,22.50
2022-10-08T12:07:57.190Z,23.80
2022-10-08T12:10:29.951Z,22.00
2022-10-08T12:13:02.558Z,21.50
2022-10-08T12:15:35.359Z,24.90
2022-10-08T12:18:26.088Z,24.60
2022-10-08T12:21:21.453Z,24.40
2022-10-08T12:23:50.049Z,24.60
2022-10-08T12:26:18.826Z,23.40
2022-10-08T12:28:50.893Z,24.90
2022-10-08T12:31:28.361Z,23.90
2022-10-08T12:33:59.782Z,25.00
2022-10-08T12:36:37.215Z,24.30
2022-10-08T12:39:08.749Z,23.60
2022-10-08T12:41:49.312Z,24.50
2022-10-08T12:44:32.670Z,24.30
2022-10-08T12:47:16.946Z,23.90
2022-10-08T12:50:03.257Z,23.50
2022-10-08T12:52:37.185Z,24.30
2022-10-08T12:55:07.187Z,24.80
2022-10-08T12:57:38.810Z,23.40
2022-10-08T13:00:13.014Z,20.30
2022-10-08T13:02:43.420Z,18.00
2022-10-08T13:05:31.411Z,19.60
2022-10-08T13:08:01.699Z,21.70
2022-10-08T13:10:30.736Z,23.60
2022-10-08T13:13:07.761Z,24.60
2022-10-08T13:15:36.281Z,23.10
2022-10-08T13:18:22.672Z,19.10
2022-10-08T13:21:02.120Z,18.90
2022-10-08T13:23:41.764Z,22.00
2022-10-08T13:26:41.665Z,24.80
2022-10-08T13:29:31.257Z,24.50
2022-10-08T13:32:03.189Z,26.30
2022-10-08T13:34:34.712Z,27.10
2022-10-08T13:37:06.428Z,26.20
2022-10-08T13:39:38.108Z,26.10
2022-10-08T13:42:09.744Z,24.90
2022-10-08T13:44:40.701Z,20.70
2022-10-08T13:47:21.122Z,18.60
2022-10-08T13:49:49.954Z,18.10
2022-10-08T13:52:21.444Z,17.80
2022-10-08T13:54:51.600Z,18.30
2022-10-08T13:57:20.161Z,17.50
2022-10-08T13:59:48.752Z,17.60
2022-10-08T14:02:17.430Z,17.40
2022-10-08T14:04:46.049Z,17.10
2022-10-08T14:07:26.424Z,16.50
2022-10-08T14:09:57.876Z,16.30
2022-10-08T14:12:30.048Z,16.30
2022-10-08T14:14:59.146Z,16.10
2022-10-08T14:17:27.783Z,16.70
2022-10-08T14:19:56.286Z,16.70
2022-10-08T14:22:24.904Z,16.90
2022-10-08T14:24:53.636Z,16.50
2022-10-08T14:27:22.220Z,16.50
2022-10-08T14:29:50.879Z,16.90
2022-10-08T14:32:19.398Z,17.40
2022-10-08T14:34:47.952Z,17.80
2022-10-08T14:37:16.578Z,18.30
2022-10-08T14:39:45.802Z,18.50
2022-10-08T14:42:14.420Z,19.20
2022-10-08T14:44:43.121Z,22.40
2022-10-08T14:47:11.685Z,24.20
2022-10-08T14:49:40.192Z,22.90
2022-10-08T14:52:08.683Z,24.30
2022-10-08T14:54:37.146Z,24.00
2022-10-08T14:57:05.571Z,22.00
2022-10-08T14:59:39.068Z,20.60
2022-10-08T15:02:04.217Z,20.90
2022-10-08T15:04:32.725Z,21.30
2022-10-08T15:07:01.153Z,21.10
2022-10-08T15:09:31.177Z,20.40
2022-10-08T15:11:59.733Z,19.20
2022-10-08T15:14:28.208Z,21.40
2022-10-08T15:16:57.661Z,20.90
2022-10-08T15:19:26.243Z,18.10
2022-10-08T15:21:54.772Z,20.40
2022-10-08T15:24:23.320Z,20.80
2022-10-08T15:26:51.788Z,21.00
2022-10-08T15:29:20.285Z,20.50
2022-10-08T15:31:51.156Z,20.40
2022-10-08T15:34:21.013Z,21.60
2022-10-08T15:36:49.743Z,22.20
2022-10-08T15:39:20.044Z,21.40
2022-10-08T15:41:50.234Z,22.00
2022-10-08T15:44:21.595Z,21.90
2022-10-08T15:46:55.910Z,21.40
2022-10-08T15:49:23.001Z,21.40
2022-10-08T15:51:51.500Z,21.40
2022-10-08T15:54:21.013Z,20.90
2022-10-08T15:56:49.537Z,20.50
2022-10-08T15:59:18.170Z,20.30
2022-10-08T16:01:46.628Z,20.20
2022-10-08T16:04:15.347Z,18.50
2022-10-08T16:06:46.919Z,17.30
2022-10-08T16:09:17.808Z,16.30
2022-10-08T16:11:47.450Z,15.80
2022-10-08T16:14:18.664Z,15.60
2022-10-08T16:16:47.836Z,15.40
2022-10-08T16:19:21.574Z,15.20
2022-10-08T16:21:52.266Z,15.30
2022-10-08T16:24:21.516Z,15.20
2022-10-08T16:26:50.211Z,15.10
2022-10-08T16:29:19.304Z,15.00
2022-10-08T16:31:48.463Z,14.70
2022-10-08T16:34:22.121Z,14.50
2022-10-08T16:36:51.301Z,14.30
2022-10-08T16:39:23.715Z,14.30
2022-10-08T16:41:52.481Z,14.20
2022-10-08T16:44:22.451Z,14.10
2022-10-08T16:46:52.895Z,13.90
2022-10-08T16:49:27.131Z,13.70
2022-10-08T16:51:58.601Z,13.50
2022-10-08T16:54:27.965Z,13.40
2022-10-08T16:56:57.262Z,13.40
2022-10-08T16:59:30.017Z,13.30
2022-10-08T17:02:00.317Z,13.20
2022-10-08T17:04:31.890Z,13.10
2022-10-08T17:07:00.374Z,13.00
2022-10-08T17:09:28.866Z,12.90
2022-10-08T17:11:57.441Z,12.80
2022-10-08T17:14:25.983Z,12.60
2022-10-08T17:16:54.775Z,12.40
2022-10-08T17:19:23.319Z,12.30
2022-10-08T17:21:51.794Z,12.20
2022-10-08T17:24:20.338Z,12.10
2022-10-08T17:26:49.862Z,12.10
2022-10-08T17:29:18.387Z,11.90
2022-10-08T17:31:47.007Z,11.80
2022-10-08T17:34:15.467Z,11.60
2022-10-08T17:36:44.421Z,11.40
2022-10-08T17:39:14.632Z,11.20
2022-10-08T17:41:44.209Z,11.10
2022-10-08T17:44:12.775Z,10.90
2022-10-08T17:46:45.554Z,10.80
2022-10-08T17:49:16.758Z,10.70
2022-10-08T17:51:46.013Z,10.70
2022-10-08T17:54:19.129Z,10.50
2022-10-08T17:56:48.718Z,10.30
2022-10-08T17:59:20.109Z,10.20
2022-10-08T18:01:48.709Z,10.20
2022-10-08T18:04:18.737Z,10.40
2022-10-08T18:06:48.639Z,10.50
2022-10-08T18:09:20.219Z,10.70
2022-10-08T18:11:52.078Z,10.60
2022-10-08T18:14:22.030Z,10.60
2022-10-08T18:16:50.769Z,10.50
2022-10-08T18:19:19.791Z,10.60
2022-10-08T18:21:48.349Z,10.60
2022-10-08T18:24:17.948Z,10.40
2022-10-08T18:26:46.915Z,10.10
2022-10-08T18:29:16.460Z,10.00
2022-10-08T18:31:46.570Z,10.10
2022-10-08T18:34:17.588Z,10.20
2022-10-08T18:36:47.437Z,9.90
2022-10-08T18:39:18.537Z,9.60
2022-10-08T18:41:49.001Z,9.40
2022-10-08T18:44:21.142Z,9.30
2022-10-08T18:46:50.993Z,9.20
2022-10-08T18:49:23.395Z,9.00
2022-10-08T18:51:51.976Z,9.00
2022-10-08T18:54:20.888Z,9.10
2022-10-08T18:56:49.357Z,9.20
2022-10-08T18:59:18.684Z,9.10
2022-10-08T19:01:48.172Z,9.00
2022-10-08T19:04:19.809Z,8.80
2022-10-08T19:06:49.915Z,8.70
2022-10-08T19:09:18.515Z,8.60
2022-10-08T19:11:52.198Z,8.60
2022-10-08T19:14:22.968Z,8.60
2022-10-08T19:16:51.977Z,8.90
2022-10-08T19:19:22.422Z,9.10
2022-10-08T19:21:51.967Z,9.40
2022-10-08T19:24:23.532Z,9.70
2022-10-08T19:26:53.110Z,9.80
2022-10-08T19:29:29.006Z,9.80
2022-10-08T19:31:58.147Z,9.70
2022-10-08T19:34:28.427Z,9.60
2022-10-08T19:36:57.444Z,9.70
2022-10-08T19:39:28.815Z,9.70
2022-10-08T19:41:57.720Z,9.60
2022-10-08T19:44:26.212Z,9.70
2022-10-08T19:46:54.779Z,9.70
2022-10-08T19:49:23.585Z,9.60
2022-10-08T19:51:53.558Z,9.70
2022-10-08T19:54:22.010Z,9.70
2022-10-08T19:56:50.642Z,9.70
2022-10-08T19:59:19.243Z,9.60
2022-10-08T20:01:47.760Z,9.50
2022-10-08T20:04:16.775Z,9.40
2022-10-08T20:06:45.436Z,9.30
2022-10-08T20:09:14.752Z,9.30
2022-10-08T20:11:45.203Z,9.50
2022-10-08T20:14:15.172Z,9.50
2022-10-08T20:16:44.442Z,9.70
2022-10-08T20:19:19.454Z,9.80
2022-10-08T20:21:50.134Z,9.70
2022-10-08T20:24:19.250Z,9.70
2022-10-08T20:26:49.179Z,9.70
2022-10-08T20:29:20.675Z,9.70
2022-10-08T20:31:53.482Z,9.60
2022-10-08T20:34:28.608Z,9.50
2022-10-08T20:36:58.950Z,9.50
2022-10-08T20:39:28.476Z,9.50
2022-10-08T20:41:58.192Z,9.40
2022-10-08T20:44:28.314Z,9.50
2022-10-08T20:46:56.834Z,9.40
2022-10-08T20:49:25.737Z,9.40
2022-10-08T20:51:54.228Z,9.40
2022-10-08T20:54:22.802Z,9.30
2022-10-08T20:56:51.299Z,9.30
2022-10-08T20:59:20.431Z,9.30
2022-10-08T21:01:50.659Z,9.30
2022-10-08T21:04:20.393Z,9.40
2022-10-08T21:06:50.793Z,9.30
2022-10-08T21:09:21.333Z,9.30
2022-10-08T21:11:49.999Z,9.30
2022-10-08T21:14:22.947Z,9.10
2022-10-08T21:16:53.342Z,9.10
2022-10-08T21:19:22.127Z,9.10
2022-10-08T21:21:50.744Z,9.00
2022-10-08T21:24:19.285Z,8.80
2022-10-08T21:26:47.897Z,8.70
2022-10-08T21:29:16.373Z,8.80
2022-10-08T21:31:44.978Z,8.90
2022-10-08T21:34:14.177Z,8.70
2022-10-08T21:36:44.456Z,8.50
2022-10-08T21:39:15.867Z,8.30
2022-10-08T21:41:44.739Z,8.00
2022-10-08T21:44:13.373Z,8.00
2022-10-08T21:46:43.403Z,8.30
2022-10-08T21:49:17.644Z,8.50
2022-10-08T21:51:46.251Z,8.40
2022-10-08T21:54:26.655Z,8.50
2022-10-08T21:56:56.461Z,8.40
2022-10-08T21:59:26.470Z,8.40
2022-10-08T22:01:55.045Z,8.40
2022-10-08T22:04:25.813Z,8.60
2022-10-08T22:06:58.525Z,8.70
2022-10-08T22:09:32.210Z,8.60
2022-10-08T22:12:01.693Z,8.60
2022-10-08T22:14:30.694Z,8.50
2022-10-08T22:16:59.226Z,8.50
2022-10-08T22:19:27.863Z,8.50
2022-10-08T22:21:56.390Z,8.40
2022-10-08T22:24:24.915Z,8.60
2022-10-08T22:26:53.346Z,8.40
2022-10-08T22:29:21.893Z,8.40
2022-10-08T22:31:50.500Z,8.40
2022-10-08T22:34:19.065Z,8.40
2022-10-08T22:36:47.526Z,8.40
2022-10-08T22:39:15.992Z,8.40
2022-10-08T22:41:44.704Z,8.30
2022-10-08T22:44:13.221Z,8.30
2022-10-08T22:46:41.767Z,8.20
2022-10-08T22:49:12.349Z,8.30
2022-10-08T22:51:41.366Z,8.30
2022-10-08T22:54:10.342Z,8.20
2022-10-08T22:56:38.959Z,8.10
2022-10-08T22:59:07.521Z,8.10
2022-10-08T23:01:36.210Z,8.10
2022-10-08T23:04:04.667Z,8.10
2022-10-08T23:06:34.981Z,8.20
2022-10-08T23:09:06.533Z,7.90
2022-10-08T23:11:35.509Z,7.90
2022-10-08T23:14:05.010Z,7.90
2022-10-08T23:16:34.591Z,7.90
2022-10-08T23:19:06.263Z,8.10
2022-10-08T23:21:35.889Z,8.10
2022-10-08T23:24:04.823Z,8.20
2022-10-08T23:26:33.459Z,8.20
2022-10-08T23:29:03.181Z,8.10
2022-10-08T23:31:34.080Z,8.10
2022-10-08T23:34:03.299Z,8.10
2022-10-08T23:36:34.517Z,7.90
2022-10-08T23:39:03.522Z,7.70
2022-10-08T23:41:32.182Z,7.60
2022-10-08T23:44:00.634Z,7.60
2022-10-08T23:46:30.905Z,7.60
2022-10-08T23:49:00.201Z,7.50
2022-10-08T23:51:31.447Z,7.50
2022-10-08T23:54:01.346Z,7.60
2022-10-08T23:56:30.260Z,7.70
2022-10-08T23:58:59.482Z,7.80
